Plandome, New York
Current Conditions -  °F | °C
As of 11:51 AM on Saturday 20 Dec 2014 (Local Time) from KLGA Reporting Station
Overcast Overcast  
Wind Chill: 23°   Ceiling: 2800
Heat Index: 31°   Visibility: 10mi
Dew Point: 20°   Wind: 9mph
Humidity: 64%   Direction: 310°NW
Pressure: 30.29"   Gusts: NA
Location:  40.7935°N, 73.6884°W
Report Text: KLGA 201651Z 31008KT 10SM OVC028 M01/M07 A3029 RMK AO2 SLP256 T10061067
Loading
Personal Weather Stations






























Interactive Weather Map New forecast layout! Learn more

10-Day Weather Forecast

Advertisements
Track Severe Weather on mobile